sensor_id;sensor_type;location;lat;lon;timestamp;P1;durP1;ratioP1;P2;durP2;ratioP2
20298;SDS011;10308;42.688;23.256;2022-07-23T00:00:10;8.57;;;7.55;;
20298;SDS011;10308;42.688;23.256;2022-07-23T00:02:37;8.30;;;7.55;;
20298;SDS011;10308;42.688;23.256;2022-07-23T00:05:04;10.73;;;8.02;;
20298;SDS011;10308;42.688;23.256;2022-07-23T00:07:31;8.05;;;7.38;;
20298;SDS011;10308;42.688;23.256;2022-07-23T00:09:58;8.70;;;7.90;;
20298;SDS011;10308;42.688;23.256;2022-07-23T00:12:26;9.65;;;8.00;;
20298;SDS011;10308;42.688;23.256;2022-07-23T00:14:54;11.55;;;7.85;;
20298;SDS011;10308;42.688;23.256;2022-07-23T00:17:20;9.73;;;7.53;;
20298;SDS011;10308;42.688;23.256;2022-07-23T00:19:47;8.70;;;7.20;;
20298;SDS011;10308;42.688;23.256;2022-07-23T00:22:14;8.48;;;7.53;;
20298;SDS011;10308;42.688;23.256;2022-07-23T00:24:41;9.63;;;7.15;;
20298;SDS011;10308;42.688;23.256;2022-07-23T00:27:08;8.13;;;7.35;;
20298;SDS011;10308;42.688;23.256;2022-07-23T00:29:36;8.55;;;6.95;;
20298;SDS011;10308;42.688;23.256;2022-07-23T00:32:03;7.63;;;6.90;;
20298;SDS011;10308;42.688;23.256;2022-07-23T00:34:30;7.28;;;6.57;;
20298;SDS011;10308;42.688;23.256;2022-07-23T00:36:57;8.48;;;7.53;;
20298;SDS011;10308;42.688;23.256;2022-07-23T00:39:24;7.63;;;6.93;;
20298;SDS011;10308;42.688;23.256;2022-07-23T00:41:51;9.13;;;7.90;;
20298;SDS011;10308;42.688;23.256;2022-07-23T00:44:18;8.55;;;7.65;;
20298;SDS011;10308;42.688;23.256;2022-07-23T00:46:48;11.68;;;7.70;;
20298;SDS011;10308;42.688;23.256;2022-07-23T00:49:18;9.23;;;7.80;;
20298;SDS011;10308;42.688;23.256;2022-07-23T00:51:46;8.73;;;7.50;;
20298;SDS011;10308;42.688;23.256;2022-07-23T00:54:13;9.30;;;7.45;;
20298;SDS011;10308;42.688;23.256;2022-07-23T00:56:41;7.78;;;6.97;;
20298;SDS011;10308;42.688;23.256;2022-07-23T00:59:08;8.18;;;7.32;;
20298;SDS011;10308;42.688;23.256;2022-07-23T01:01:35;9.52;;;7.45;;
20298;SDS011;10308;42.688;23.256;2022-07-23T01:04:03;7.88;;;7.05;;
20298;SDS011;10308;42.688;23.256;2022-07-23T01:06:30;7.50;;;6.60;;
20298;SDS011;10308;42.688;23.256;2022-07-23T01:09:00;7.90;;;7.13;;
20298;SDS011;10308;42.688;23.256;2022-07-23T01:11:26;7.72;;;7.03;;
20298;SDS011;10308;42.688;23.256;2022-07-23T01:13:54;9.77;;;7.63;;
20298;SDS011;10308;42.688;23.256;2022-07-23T01:16:20;7.93;;;7.13;;
20298;SDS011;10308;42.688;23.256;2022-07-23T01:18:47;8.48;;;7.65;;
20298;SDS011;10308;42.688;23.256;2022-07-23T01:21:15;11.00;;;8.15;;
20298;SDS011;10308;42.688;23.256;2022-07-23T01:23:46;7.88;;;7.07;;
20298;SDS011;10308;42.688;23.256;2022-07-23T01:26:12;8.70;;;7.80;;
20298;SDS011;10308;42.688;23.256;2022-07-23T01:28:42;9.07;;;7.38;;
20298;SDS011;10308;42.688;23.256;2022-07-23T01:31:09;11.85;;;8.13;;
20298;SDS011;10308;42.688;23.256;2022-07-23T01:33:35;9.18;;;7.75;;
20298;SDS011;10308;42.688;23.256;2022-07-23T01:36:02;9.32;;;8.18;;
20298;SDS011;10308;42.688;23.256;2022-07-23T01:38:29;9.68;;;8.02;;
20298;SDS011;10308;42.688;23.256;2022-07-23T01:40:57;9.90;;;7.70;;
20298;SDS011;10308;42.688;23.256;2022-07-23T01:43:24;8.77;;;7.85;;
20298;SDS011;10308;42.688;23.256;2022-07-23T01:45:51;8.07;;;7.20;;
20298;SDS011;10308;42.688;23.256;2022-07-23T01:48:17;8.13;;;7.38;;
20298;SDS011;10308;42.688;23.256;2022-07-23T01:50:45;8.55;;;7.68;;
20298;SDS011;10308;42.688;23.256;2022-07-23T01:53:12;8.45;;;7.68;;
20298;SDS011;10308;42.688;23.256;2022-07-23T01:55:39;11.43;;;8.25;;
20298;SDS011;10308;42.688;23.256;2022-07-23T01:58:07;8.48;;;7.78;;
20298;SDS011;10308;42.688;23.256;2022-07-23T02:00:34;9.55;;;8.02;;
20298;SDS011;10308;42.688;23.256;2022-07-23T02:03:01;9.90;;;7.93;;
20298;SDS011;10308;42.688;23.256;2022-07-23T02:05:28;8.88;;;7.97;;
20298;SDS011;10308;42.688;23.256;2022-07-23T02:07:55;11.50;;;8.50;;
20298;SDS011;10308;42.688;23.256;2022-07-23T02:10:22;8.88;;;7.97;;
20298;SDS011;10308;42.688;23.256;2022-07-23T02:12:48;9.05;;;8.02;;
20298;SDS011;10308;42.688;23.256;2022-07-23T02:15:17;9.07;;;7.50;;
20298;SDS011;10308;42.688;23.256;2022-07-23T02:17:44;9.43;;;7.70;;
20298;SDS011;10308;42.688;23.256;2022-07-23T02:20:11;8.35;;;6.97;;
20298;SDS011;10308;42.688;23.256;2022-07-23T02:22:39;9.85;;;8.80;;
20298;SDS011;10308;42.688;23.256;2022-07-23T02:25:06;8.40;;;7.45;;
20298;SDS011;10308;42.688;23.256;2022-07-23T02:27:34;8.18;;;7.47;;
20298;SDS011;10308;42.688;23.256;2022-07-23T02:30:02;8.25;;;7.45;;
20298;SDS011;10308;42.688;23.256;2022-07-23T02:32:30;8.10;;;7.18;;
20298;SDS011;10308;42.688;23.256;2022-07-23T02:34:57;8.75;;;7.05;;
20298;SDS011;10308;42.688;23.256;2022-07-23T02:37:24;10.40;;;7.88;;
20298;SDS011;10308;42.688;23.256;2022-07-23T02:39:51;8.45;;;7.65;;
20298;SDS011;10308;42.688;23.256;2022-07-23T02:42:18;9.18;;;7.63;;
20298;SDS011;10308;42.688;23.256;2022-07-23T02:44:45;9.05;;;7.80;;
20298;SDS011;10308;42.688;23.256;2022-07-23T02:47:12;8.90;;;7.93;;
20298;SDS011;10308;42.688;23.256;2022-07-23T02:49:40;12.27;;;8.65;;
20298;SDS011;10308;42.688;23.256;2022-07-23T02:52:06;9.98;;;8.20;;
20298;SDS011;10308;42.688;23.256;2022-07-23T02:54:35;9.25;;;7.93;;
20298;SDS011;10308;42.688;23.256;2022-07-23T02:57:02;8.60;;;7.50;;
20298;SDS011;10308;42.688;23.256;2022-07-23T02:59:29;7.47;;;6.85;;
20298;SDS011;10308;42.688;23.256;2022-07-23T03:01:55;8.20;;;7.40;;
20298;SDS011;10308;42.688;23.256;2022-07-23T03:04:22;8.00;;;7.20;;
20298;SDS011;10308;42.688;23.256;2022-07-23T03:06:50;9.48;;;7.72;;
20298;SDS011;10308;42.688;23.256;2022-07-23T03:09:17;8.38;;;7.32;;
20298;SDS011;10308;42.688;23.256;2022-07-23T03:11:44;8.52;;;7.72;;
20298;SDS011;10308;42.688;23.256;2022-07-23T03:14:11;11.05;;;7.97;;
20298;SDS011;10308;42.688;23.256;2022-07-23T03:16:39;8.50;;;7.60;;
20298;SDS011;10308;42.688;23.256;2022-07-23T03:19:05;8.00;;;7.30;;
20298;SDS011;10308;42.688;23.256;2022-07-23T03:21:32;9.10;;;7.80;;
20298;SDS011;10308;42.688;23.256;2022-07-23T03:24:01;8.88;;;7.43;;
20298;SDS011;10308;42.688;23.256;2022-07-23T03:26:27;11.48;;;7.60;;
20298;SDS011;10308;42.688;23.256;2022-07-23T03:28:55;8.30;;;6.75;;
20298;SDS011;10308;42.688;23.256;2022-07-23T03:31:21;9.13;;;7.57;;
20298;SDS011;10308;42.688;23.256;2022-07-23T03:33:48;7.88;;;7.07;;
20298;SDS011;10308;42.688;23.256;2022-07-23T03:36:15;7.30;;;6.60;;
20298;SDS011;10308;42.688;23.256;2022-07-23T03:38:42;6.65;;;5.95;;
20298;SDS011;10308;42.688;23.256;2022-07-23T03:41:10;6.65;;;6.05;;
20298;SDS011;10308;42.688;23.256;2022-07-23T03:43:37;7.28;;;6.07;;
20298;SDS011;10308;42.688;23.256;2022-07-23T03:46:03;6.90;;;6.20;;
20298;SDS011;10308;42.688;23.256;2022-07-23T03:48:30;7.47;;;6.13;;
20298;SDS011;10308;42.688;23.256;2022-07-23T03:50:57;6.07;;;5.57;;
20298;SDS011;10308;42.688;23.256;2022-07-23T03:53:24;6.60;;;6.00;;
20298;SDS011;10308;42.688;23.256;2022-07-23T03:55:50;9.02;;;6.00;;
20298;SDS011;10308;42.688;23.256;2022-07-23T03:58:18;6.72;;;6.13;;
20298;SDS011;10308;42.688;23.256;2022-07-23T04:00:45;8.10;;;6.15;;
20298;SDS011;10308;42.688;23.256;2022-07-23T04:03:12;6.95;;;6.25;;
20298;SDS011;10308;42.688;23.256;2022-07-23T04:05:39;7.32;;;6.45;;
20298;SDS011;10308;42.688;23.256;2022-07-23T04:08:06;7.53;;;5.88;;
20298;SDS011;10308;42.688;23.256;2022-07-23T04:10:33;7.35;;;6.65;;
20298;SDS011;10308;42.688;23.256;2022-07-23T04:13:00;12.05;;;7.00;;
20298;SDS011;10308;42.688;23.256;2022-07-23T04:15:28;7.35;;;6.65;;
20298;SDS011;10308;42.688;23.256;2022-07-23T04:17:55;10.05;;;6.95;;
20298;SDS011;10308;42.688;23.256;2022-07-23T04:20:22;7.05;;;6.40;;
20298;SDS011;10308;42.688;23.256;2022-07-23T04:22:49;10.15;;;6.60;;
20298;SDS011;10308;42.688;23.256;2022-07-23T04:25:15;8.98;;;6.25;;
20298;SDS011;10308;42.688;23.256;2022-07-23T04:27:43;7.28;;;6.57;;
20298;SDS011;10308;42.688;23.256;2022-07-23T04:30:10;8.82;;;7.03;;
20298;SDS011;10308;42.688;23.256;2022-07-23T04:32:38;7.65;;;6.85;;
20298;SDS011;10308;42.688;23.256;2022-07-23T04:35:05;8.77;;;6.97;;
20298;SDS011;10308;42.688;23.256;2022-07-23T04:37:32;7.30;;;6.60;;
20298;SDS011;10308;42.688;23.256;2022-07-23T04:39:59;9.20;;;6.60;;
20298;SDS011;10308;42.688;23.256;2022-07-23T04:42:26;7.45;;;6.75;;
20298;SDS011;10308;42.688;23.256;2022-07-23T04:44:52;8.30;;;6.80;;
20298;SDS011;10308;42.688;23.256;2022-07-23T04:47:19;7.50;;;6.65;;
20298;SDS011;10308;42.688;23.256;2022-07-23T04:49:47;10.88;;;7.10;;
20298;SDS011;10308;42.688;23.256;2022-07-23T04:52:14;9.23;;;7.65;;
20298;SDS011;10308;42.688;23.256;2022-07-23T04:54:41;9.23;;;7.22;;
20298;SDS011;10308;42.688;23.256;2022-07-23T04:57:07;8.18;;;7.10;;
20298;SDS011;10308;42.688;23.256;2022-07-23T04:59:34;8.85;;;7.35;;
20298;SDS011;10308;42.688;23.256;2022-07-23T05:02:01;7.80;;;7.05;;
20298;SDS011;10308;42.688;23.256;2022-07-23T05:04:28;7.60;;;6.90;;
20298;SDS011;10308;42.688;23.256;2022-07-23T05:06:57;11.43;;;7.75;;
20298;SDS011;10308;42.688;23.256;2022-07-23T05:09:24;10.52;;;7.28;;
20298;SDS011;10308;42.688;23.256;2022-07-23T05:11:51;9.50;;;7.53;;
20298;SDS011;10308;42.688;23.256;2022-07-23T05:14:18;8.07;;;7.35;;
20298;SDS011;10308;42.688;23.256;2022-07-23T05:16:45;7.75;;;6.97;;
20298;SDS011;10308;42.688;23.256;2022-07-23T05:19:12;8.07;;;7.28;;
20298;SDS011;10308;42.688;23.256;2022-07-23T05:21:38;9.20;;;6.90;;
20298;SDS011;10308;42.688;23.256;2022-07-23T05:24:07;9.82;;;7.30;;
20298;SDS011;10308;42.688;23.256;2022-07-23T05:26:34;10.25;;;7.75;;
20298;SDS011;10308;42.688;23.256;2022-07-23T05:29:00;9.13;;;6.63;;
20298;SDS011;10308;42.688;23.256;2022-07-23T05:31:27;8.00;;;6.93;;
20298;SDS011;10308;42.688;23.256;2022-07-23T05:33:54;8.60;;;7.18;;
20298;SDS011;10308;42.688;23.256;2022-07-23T05:36:21;7.57;;;6.78;;
20298;SDS011;10308;42.688;23.256;2022-07-23T05:38:48;8.27;;;6.90;;
20298;SDS011;10308;42.688;23.256;2022-07-23T05:41:16;7.95;;;7.15;;
20298;SDS011;10308;42.688;23.256;2022-07-23T05:43:42;8.90;;;8.02;;
20298;SDS011;10308;42.688;23.256;2022-07-23T05:46:09;8.32;;;7.03;;
20298;SDS011;10308;42.688;23.256;2022-07-23T05:48:36;11.57;;;7.00;;
20298;SDS011;10308;42.688;23.256;2022-07-23T05:51:03;9.10;;;7.57;;
20298;SDS011;10308;42.688;23.256;2022-07-23T05:53:31;9.05;;;7.88;;
20298;SDS011;10308;42.688;23.256;2022-07-23T05:55:58;8.48;;;7.57;;
20298;SDS011;10308;42.688;23.256;2022-07-23T05:58:26;7.72;;;7.05;;
20298;SDS011;10308;42.688;23.256;2022-07-23T06:00:53;8.57;;;7.78;;
20298;SDS011;10308;42.688;23.256;2022-07-23T06:03:20;10.45;;;8.00;;
20298;SDS011;10308;42.688;23.256;2022-07-23T06:05:47;9.77;;;8.77;;
20298;SDS011;10308;42.688;23.256;2022-07-23T06:08:14;9.02;;;8.02;;
20298;SDS011;10308;42.688;23.256;2022-07-23T06:10:42;10.10;;;9.07;;
20298;SDS011;10308;42.688;23.256;2022-07-23T06:13:09;9.35;;;7.63;;
20298;SDS011;10308;42.688;23.256;2022-07-23T06:15:37;8.27;;;7.57;;
20298;SDS011;10308;42.688;23.256;2022-07-23T06:18:04;10.02;;;8.48;;
20298;SDS011;10308;42.688;23.256;2022-07-23T06:20:31;10.73;;;8.30;;
20298;SDS011;10308;42.688;23.256;2022-07-23T06:22:57;8.10;;;7.00;;
20298;SDS011;10308;42.688;23.256;2022-07-23T06:25:24;8.63;;;7.35;;
20298;SDS011;10308;42.688;23.256;2022-07-23T06:27:51;9.90;;;7.82;;
20298;SDS011;10308;42.688;23.256;2022-07-23T06:30:18;9.57;;;7.68;;
20298;SDS011;10308;42.688;23.256;2022-07-23T06:32:46;11.45;;;8.02;;
20298;SDS011;10308;42.688;23.256;2022-07-23T06:35:13;9.32;;;8.20;;
20298;SDS011;10308;42.688;23.256;2022-07-23T06:37:40;10.52;;;8.00;;
20298;SDS011;10308;42.688;23.256;2022-07-23T06:40:07;9.57;;;8.50;;
20298;SDS011;10308;42.688;23.256;2022-07-23T06:42:34;10.32;;;8.32;;
20298;SDS011;10308;42.688;23.256;2022-07-23T06:45:04;8.13;;;7.43;;
20298;SDS011;10308;42.688;23.256;2022-07-23T06:47:32;9.48;;;8.10;;
20298;SDS011;10308;42.688;23.256;2022-07-23T06:50:00;11.82;;;8.05;;
20298;SDS011;10308;42.688;23.256;2022-07-23T06:52:27;8.00;;;7.20;;
20298;SDS011;10308;42.688;23.256;2022-07-23T06:54:53;9.75;;;7.50;;
20298;SDS011;10308;42.688;23.256;2022-07-23T06:57:20;11.50;;;8.85;;
20298;SDS011;10308;42.688;23.256;2022-07-23T06:59:47;14.63;;;13.07;;
20298;SDS011;10308;42.688;23.256;2022-07-23T07:02:13;13.05;;;10.68;;
20298;SDS011;10308;42.688;23.256;2022-07-23T07:04:40;10.80;;;9.70;;
20298;SDS011;10308;42.688;23.256;2022-07-23T07:07:09;10.70;;;9.15;;
20298;SDS011;10308;42.688;23.256;2022-07-23T07:09:37;10.32;;;9.23;;
20298;SDS011;10308;42.688;23.256;2022-07-23T07:12:04;9.77;;;8.50;;
20298;SDS011;10308;42.688;23.256;2022-07-23T07:14:31;9.57;;;8.75;;
20298;SDS011;10308;42.688;23.256;2022-07-23T07:16:58;9.23;;;8.32;;
20298;SDS011;10308;42.688;23.256;2022-07-23T07:19:24;10.38;;;8.90;;
20298;SDS011;10308;42.688;23.256;2022-07-23T07:21:51;11.57;;;9.98;;
20298;SDS011;10308;42.688;23.256;2022-07-23T07:24:20;9.52;;;8.18;;
20298;SDS011;10308;42.688;23.256;2022-07-23T07:26:46;8.57;;;7.85;;
20298;SDS011;10308;42.688;23.256;2022-07-23T07:29:13;10.50;;;8.60;;
20298;SDS011;10308;42.688;23.256;2022-07-23T07:31:40;7.97;;;7.28;;
20298;SDS011;10308;42.688;23.256;2022-07-23T07:34:07;9.10;;;8.27;;
20298;SDS011;10308;42.688;23.256;2022-07-23T07:36:34;9.40;;;8.50;;
20298;SDS011;10308;42.688;23.256;2022-07-23T07:39:02;8.35;;;7.75;;
20298;SDS011;10308;42.688;23.256;2022-07-23T07:41:30;9.00;;;8.25;;
20298;SDS011;10308;42.688;23.256;2022-07-23T07:43:57;9.23;;;8.23;;
20298;SDS011;10308;42.688;23.256;2022-07-23T07:46:24;10.48;;;8.35;;
20298;SDS011;10308;42.688;23.256;2022-07-23T07:48:52;9.52;;;8.07;;
20298;SDS011;10308;42.688;23.256;2022-07-23T07:51:19;9.10;;;8.30;;
20298;SDS011;10308;42.688;23.256;2022-07-23T07:53:46;10.70;;;8.52;;
20298;SDS011;10308;42.688;23.256;2022-07-23T07:56:12;10.13;;;8.30;;
20298;SDS011;10308;42.688;23.256;2022-07-23T07:58:41;9.38;;;8.40;;
20298;SDS011;10308;42.688;23.256;2022-07-23T08:01:08;10.07;;;9.18;;
20298;SDS011;10308;42.688;23.256;2022-07-23T08:03:34;9.23;;;8.32;;
20298;SDS011;10308;42.688;23.256;2022-07-23T08:06:01;10.75;;;9.13;;
20298;SDS011;10308;42.688;23.256;2022-07-23T08:08:28;11.30;;;9.98;;
20298;SDS011;10308;42.688;23.256;2022-07-23T08:10:55;10.57;;;8.95;;
20298;SDS011;10308;42.688;23.256;2022-07-23T08:13:21;10.02;;;8.95;;
20298;SDS011;10308;42.688;23.256;2022-07-23T08:15:50;11.07;;;8.80;;
20298;SDS011;10308;42.688;23.256;2022-07-23T08:18:18;11.02;;;8.85;;
20298;SDS011;10308;42.688;23.256;2022-07-23T08:20:45;12.23;;;9.38;;
20298;SDS011;10308;42.688;23.256;2022-07-23T08:23:11;10.88;;;9.25;;
20298;SDS011;10308;42.688;23.256;2022-07-23T08:25:39;10.13;;;9.13;;
20298;SDS011;10308;42.688;23.256;2022-07-23T08:28:07;9.90;;;8.82;;
20298;SDS011;10308;42.688;23.256;2022-07-23T08:30:35;12.23;;;9.18;;
20298;SDS011;10308;42.688;23.256;2022-07-23T08:33:04;9.80;;;8.77;;
20298;SDS011;10308;42.688;23.256;2022-07-23T08:35:33;9.30;;;8.50;;
20298;SDS011;10308;42.688;23.256;2022-07-23T08:38:01;9.75;;;8.70;;
20298;SDS011;10308;42.688;23.256;2022-07-23T08:40:31;10.02;;;9.02;;
20298;SDS011;10308;42.688;23.256;2022-07-23T08:42:58;9.32;;;8.57;;
20298;SDS011;10308;42.688;23.256;2022-07-23T08:45:26;9.43;;;8.52;;
20298;SDS011;10308;42.688;23.256;2022-07-23T08:47:53;12.48;;;8.90;;
20298;SDS011;10308;42.688;23.256;2022-07-23T08:50:23;8.85;;;8.07;;
20298;SDS011;10308;42.688;23.256;2022-07-23T08:52:50;9.23;;;8.32;;
20298;SDS011;10308;42.688;23.256;2022-07-23T08:55:18;11.32;;;8.90;;
20298;SDS011;10308;42.688;23.256;2022-07-23T08:57:45;9.18;;;8.35;;
20298;SDS011;10308;42.688;23.256;2022-07-23T09:00:14;9.55;;;8.45;;
20298;SDS011;10308;42.688;23.256;2022-07-23T09:02:42;13.32;;;8.48;;
20298;SDS011;10308;42.688;23.256;2022-07-23T09:05:10;9.98;;;7.95;;
20298;SDS011;10308;42.688;23.256;2022-07-23T09:08:02;9.65;;;7.47;;
20298;SDS011;10308;42.688;23.256;2022-07-23T09:10:41;10.00;;;8.30;;
20298;SDS011;10308;42.688;23.256;2022-07-23T09:13:17;9.55;;;8.23;;
20298;SDS011;10308;42.688;23.256;2022-07-23T09:15:49;9.65;;;8.25;;
20298;SDS011;10308;42.688;23.256;2022-07-23T09:18:16;8.88;;;8.10;;
20298;SDS011;10308;42.688;23.256;2022-07-23T09:20:43;10.27;;;8.13;;
20298;SDS011;10308;42.688;23.256;2022-07-23T09:23:11;8.77;;;7.93;;
20298;SDS011;10308;42.688;23.256;2022-07-23T09:25:38;9.57;;;8.57;;
20298;SDS011;10308;42.688;23.256;2022-07-23T09:28:05;9.05;;;8.15;;
20298;SDS011;10308;42.688;23.256;2022-07-23T09:30:32;9.45;;;7.35;;
20298;SDS011;10308;42.688;23.256;2022-07-23T09:33:04;8.77;;;7.88;;
20298;SDS011;10308;42.688;23.256;2022-07-23T09:35:44;8.38;;;7.65;;
20298;SDS011;10308;42.688;23.256;2022-07-23T09:38:14;10.85;;;7.78;;
20298;SDS011;10308;42.688;23.256;2022-07-23T09:40:41;10.02;;;6.82;;
20298;SDS011;10308;42.688;23.256;2022-07-23T09:43:08;7.75;;;6.85;;
20298;SDS011;10308;42.688;23.256;2022-07-23T09:45:35;7.88;;;6.97;;
20298;SDS011;10308;42.688;23.256;2022-07-23T09:48:10;9.05;;;6.38;;
20298;SDS011;10308;42.688;23.256;2022-07-23T09:50:38;7.30;;;6.50;;
20298;SDS011;10308;42.688;23.256;2022-07-23T09:53:04;9.77;;;6.72;;
20298;SDS011;10308;42.688;23.256;2022-07-23T09:55:33;7.72;;;7.03;;
20298;SDS011;10308;42.688;23.256;2022-07-23T09:58:02;7.93;;;6.40;;
20298;SDS011;10308;42.688;23.256;2022-07-23T10:00:29;11.98;;;7.28;;
20298;SDS011;10308;42.688;23.256;2022-07-23T10:02:57;7.60;;;6.80;;
20298;SDS011;10308;42.688;23.256;2022-07-23T10:05:24;8.00;;;6.97;;
20298;SDS011;10308;42.688;23.256;2022-07-23T10:07:51;7.93;;;7.13;;
20298;SDS011;10308;42.688;23.256;2022-07-23T10:10:18;7.30;;;6.60;;
20298;SDS011;10308;42.688;23.256;2022-07-23T10:12:48;8.90;;;6.47;;
20298;SDS011;10308;42.688;23.256;2022-07-23T10:15:40;7.70;;;6.95;;
20298;SDS011;10308;42.688;23.256;2022-07-23T10:18:08;9.98;;;6.82;;
20298;SDS011;10308;42.688;23.256;2022-07-23T10:20:36;9.25;;;7.00;;
20298;SDS011;10308;42.688;23.256;2022-07-23T10:23:04;7.88;;;5.82;;
20298;SDS011;10308;42.688;23.256;2022-07-23T10:25:39;8.65;;;6.63;;
20298;SDS011;10308;42.688;23.256;2022-07-23T10:28:22;6.47;;;5.78;;
20298;SDS011;10308;42.688;23.256;2022-07-23T10:31:00;7.57;;;6.15;;
20298;SDS011;10308;42.688;23.256;2022-07-23T10:33:30;7.35;;;6.38;;
20298;SDS011;10308;42.688;23.256;2022-07-23T10:36:07;10.60;;;6.47;;
20298;SDS011;10308;42.688;23.256;2022-07-23T10:38:35;8.45;;;5.97;;
20298;SDS011;10308;42.688;23.256;2022-07-23T10:41:04;7.28;;;6.43;;
20298;SDS011;10308;42.688;23.256;2022-07-23T10:43:32;7.15;;;6.03;;
20298;SDS011;10308;42.688;23.256;2022-07-23T10:48:48;7.50;;;5.80;;
20298;SDS011;10308;42.688;23.256;2022-07-23T10:54:49;7.15;;;5.72;;
20298;SDS011;10308;42.688;23.256;2022-07-23T10:57:17;6.88;;;5.88;;
20298;SDS011;10308;42.688;23.256;2022-07-23T11:02:52;8.93;;;5.53;;
20298;SDS011;10308;42.688;23.256;2022-07-23T11:05:20;9.27;;;5.90;;
20298;SDS011;10308;42.688;23.256;2022-07-23T11:10:45;9.63;;;5.38;;
20298;SDS011;10308;42.688;23.256;2022-07-23T11:13:26;9.10;;;5.43;;
20298;SDS011;10308;42.688;23.256;2022-07-23T11:16:06;8.00;;;4.57;;
20298;SDS011;10308;42.688;23.256;2022-07-23T11:21:42;6.53;;;5.28;;
20298;SDS011;10308;42.688;23.256;2022-07-23T11:24:11;7.80;;;5.28;;
20298;SDS011;10308;42.688;23.256;2022-07-23T11:26:43;7.82;;;5.60;;
20298;SDS011;10308;42.688;23.256;2022-07-23T11:35:06;5.82;;;4.18;;
20298;SDS011;10308;42.688;23.256;2022-07-23T11:37:45;12.15;;;5.80;;
20298;SDS011;10308;42.688;23.256;2022-07-23T11:40:13;9.13;;;4.82;;
20298;SDS011;10308;42.688;23.256;2022-07-23T11:42:50;10.13;;;5.07;;
20298;SDS011;10308;42.688;23.256;2022-07-23T11:45:18;10.75;;;4.70;;
20298;SDS011;10308;42.688;23.256;2022-07-23T11:47:48;7.20;;;4.85;;
20298;SDS011;10308;42.688;23.256;2022-07-23T11:50:16;8.20;;;4.97;;
20298;SDS011;10308;42.688;23.256;2022-07-23T11:52:43;10.70;;;5.20;;
20298;SDS011;10308;42.688;23.256;2022-07-23T11:55:10;8.48;;;5.18;;
20298;SDS011;10308;42.688;23.256;2022-07-23T11:57:38;9.73;;;4.97;;
20298;SDS011;10308;42.688;23.256;2022-07-23T12:00:06;8.30;;;5.25;;
20298;SDS011;10308;42.688;23.256;2022-07-23T12:02:36;9.80;;;5.68;;
20298;SDS011;10308;42.688;23.256;2022-07-23T12:05:03;10.35;;;5.20;;
20298;SDS011;10308;42.688;23.256;2022-07-23T12:07:33;7.40;;;5.68;;
20298;SDS011;10308;42.688;23.256;2022-07-23T12:10:02;6.07;;;4.95;;
20298;SDS011;10308;42.688;23.256;2022-07-23T12:12:35;10.35;;;5.15;;
20298;SDS011;10308;42.688;23.256;2022-07-23T12:15:04;8.60;;;5.47;;
20298;SDS011;10308;42.688;23.256;2022-07-23T12:17:32;6.90;;;4.95;;
20298;SDS011;10308;42.688;23.256;2022-07-23T12:20:00;11.40;;;5.15;;
20298;SDS011;10308;42.688;23.256;2022-07-23T12:22:34;9.43;;;5.13;;
20298;SDS011;10308;42.688;23.256;2022-07-23T12:25:03;7.88;;;5.57;;
20298;SDS011;10308;42.688;23.256;2022-07-23T12:27:31;9.88;;;5.07;;
20298;SDS011;10308;42.688;23.256;2022-07-23T12:29:58;8.98;;;5.35;;
20298;SDS011;10308;42.688;23.256;2022-07-23T12:32:26;11.23;;;5.68;;
20298;SDS011;10308;42.688;23.256;2022-07-23T12:35:03;10.23;;;5.07;;
20298;SDS011;10308;42.688;23.256;2022-07-23T12:37:32;9.65;;;5.32;;
20298;SDS011;10308;42.688;23.256;2022-07-23T12:42:49;8.68;;;5.10;;
20298;SDS011;10308;42.688;23.256;2022-07-23T12:45:17;6.90;;;5.00;;
20298;SDS011;10308;42.688;23.256;2022-07-23T12:47:51;7.10;;;4.53;;
20298;SDS011;10308;42.688;23.256;2022-07-23T12:50:39;9.70;;;5.70;;
20298;SDS011;10308;42.688;23.256;2022-07-23T12:53:10;8.43;;;5.28;;
20298;SDS011;10308;42.688;23.256;2022-07-23T12:55:39;7.82;;;5.13;;
20298;SDS011;10308;42.688;23.256;2022-07-23T12:58:07;9.13;;;4.70;;
20298;SDS011;10308;42.688;23.256;2022-07-23T13:00:55;8.75;;;5.20;;
20298;SDS011;10308;42.688;23.256;2022-07-23T13:03:23;7.00;;;5.03;;
20298;SDS011;10308;42.688;23.256;2022-07-23T13:05:51;8.20;;;6.28;;
20298;SDS011;10308;42.688;23.256;2022-07-23T13:08:20;9.35;;;5.18;;
20298;SDS011;10308;42.688;23.256;2022-07-23T13:10:48;7.82;;;5.60;;
20298;SDS011;10308;42.688;23.256;2022-07-23T13:13:16;9.60;;;5.30;;
20298;SDS011;10308;42.688;23.256;2022-07-23T13:15:44;7.00;;;5.18;;
20298;SDS011;10308;42.688;23.256;2022-07-23T13:18:11;8.55;;;5.38;;
20298;SDS011;10308;42.688;23.256;2022-07-23T13:20:38;8.65;;;5.38;;
20298;SDS011;10308;42.688;23.256;2022-07-23T13:23:05;9.60;;;5.07;;
20298;SDS011;10308;42.688;23.256;2022-07-23T13:25:33;11.88;;;5.35;;
20298;SDS011;10308;42.688;23.256;2022-07-23T13:28:00;9.27;;;5.60;;
20298;SDS011;10308;42.688;23.256;2022-07-23T13:30:27;9.02;;;4.82;;
20298;SDS011;10308;42.688;23.256;2022-07-23T13:32:54;9.00;;;4.70;;
20298;SDS011;10308;42.688;23.256;2022-07-23T13:35:22;6.90;;;4.63;;
20298;SDS011;10308;42.688;23.256;2022-07-23T13:37:49;8.63;;;5.18;;
20298;SDS011;10308;42.688;23.256;2022-07-23T13:40:16;7.90;;;4.95;;
20298;SDS011;10308;42.688;23.256;2022-07-23T13:42:44;9.63;;;5.20;;
20298;SDS011;10308;42.688;23.256;2022-07-23T13:45:10;11.68;;;5.30;;
20298;SDS011;10308;42.688;23.256;2022-07-23T13:47:37;8.60;;;5.10;;
20298;SDS011;10308;42.688;23.256;2022-07-23T13:50:04;7.35;;;4.63;;
20298;SDS011;10308;42.688;23.256;2022-07-23T13:52:32;5.00;;;4.47;;
20298;SDS011;10308;42.688;23.256;2022-07-23T13:54:59;6.07;;;4.63;;
20298;SDS011;10308;42.688;23.256;2022-07-23T13:57:26;7.13;;;4.45;;
20298;SDS011;10308;42.688;23.256;2022-07-23T13:59:55;5.63;;;4.72;;
20298;SDS011;10308;42.688;23.256;2022-07-23T14:02:23;7.57;;;4.82;;
20298;SDS011;10308;42.688;23.256;2022-07-23T14:04:50;8.27;;;4.75;;
20298;SDS011;10308;42.688;23.256;2022-07-23T14:07:17;8.93;;;4.72;;
20298;SDS011;10308;42.688;23.256;2022-07-23T14:09:44;8.38;;;5.13;;
20298;SDS011;10308;42.688;23.256;2022-07-23T14:12:11;8.55;;;5.10;;
20298;SDS011;10308;42.688;23.256;2022-07-23T14:14:38;8.43;;;5.07;;
20298;SDS011;10308;42.688;23.256;2022-07-23T14:17:06;7.18;;;5.68;;
20298;SDS011;10308;42.688;23.256;2022-07-23T14:19:33;7.28;;;4.85;;
20298;SDS011;10308;42.688;23.256;2022-07-23T14:22:00;11.45;;;6.07;;
20298;SDS011;10308;42.688;23.256;2022-07-23T14:24:27;10.75;;;6.50;;
20298;SDS011;10308;42.688;23.256;2022-07-23T14:26:54;11.73;;;6.72;;
20298;SDS011;10308;42.688;23.256;2022-07-23T14:29:20;8.75;;;7.20;;
20298;SDS011;10308;42.688;23.256;2022-07-23T14:31:47;9.40;;;4.78;;
20298;SDS011;10308;42.688;23.256;2022-07-23T14:34:16;9.18;;;4.95;;
20298;SDS011;10308;42.688;23.256;2022-07-23T14:36:43;7.97;;;4.85;;
20298;SDS011;10308;42.688;23.256;2022-07-23T14:39:09;7.90;;;5.10;;
20298;SDS011;10308;42.688;23.256;2022-07-23T14:41:37;6.63;;;5.13;;
20298;SDS011;10308;42.688;23.256;2022-07-23T14:44:04;8.45;;;5.53;;
20298;SDS011;10308;42.688;23.256;2022-07-23T14:46:31;10.10;;;6.63;;
20298;SDS011;10308;42.688;23.256;2022-07-23T14:48:58;7.40;;;6.00;;
20298;SDS011;10308;42.688;23.256;2022-07-23T14:51:26;8.63;;;6.72;;
20298;SDS011;10308;42.688;23.256;2022-07-23T14:53:53;7.97;;;5.40;;
20298;SDS011;10308;42.688;23.256;2022-07-23T14:56:20;7.88;;;5.03;;
20298;SDS011;10308;42.688;23.256;2022-07-23T14:58:47;6.97;;;5.05;;